createdAt,value
2024-02-15T00:00:01.105Z,13.82
2024-02-15T00:02:32.236Z,17.38
2024-02-15T00:04:59.368Z,18.58
2024-02-15T00:07:27.514Z,13.55
2024-02-15T00:09:57.293Z,17.08
2024-02-15T00:12:24.299Z,15.20
2024-02-15T00:14:51.764Z,14.23
2024-02-15T00:17:19.367Z,14.10
2024-02-15T00:19:47.988Z,14.45
2024-02-15T00:22:15.257Z,14.55
2024-02-15T00:24:43.913Z,17.02
2024-02-15T00:27:12.383Z,18.15
2024-02-15T00:29:41.632Z,16.80
2024-02-15T00:32:09.382Z,14.07
2024-02-15T00:34:37.432Z,16.08
2024-02-15T00:37:05.792Z,14.30
2024-02-15T00:39:33.141Z,17.02
2024-02-15T00:42:01.614Z,16.17
2024-02-15T00:44:29.103Z,16.30
2024-02-15T00:46:57.229Z,17.13
2024-02-15T00:49:24.722Z,15.10
2024-02-15T00:51:51.939Z,14.82
2024-02-15T00:54:18.980Z,13.40
2024-02-15T00:56:46.178Z,14.57
2024-02-15T00:59:13.216Z,16.40
2024-02-15T01:01:40.295Z,14.32
2024-02-15T01:04:07.469Z,15.73
2024-02-15T01:06:34.886Z,14.98
2024-02-15T01:09:04.950Z,15.68
2024-02-15T01:11:36.947Z,15.82
2024-02-15T01:14:04.646Z,14.30
2024-02-15T01:16:31.941Z,14.73
2024-02-15T01:18:59.372Z,14.77
2024-02-15T01:21:26.960Z,15.95
2024-02-15T01:23:55.129Z,14.77
2024-02-15T01:26:22.377Z,18.73
2024-02-15T01:28:49.622Z,16.10
2024-02-15T01:31:18.611Z,14.00
2024-02-15T01:33:49.467Z,12.80
2024-02-15T01:36:17.837Z,16.05
2024-02-15T01:38:46.135Z,14.43
2024-02-15T01:41:13.406Z,18.17
2024-02-15T01:43:45.994Z,18.13
2024-02-15T01:46:13.389Z,18.60
2024-02-15T01:48:41.959Z,18.10
2024-02-15T01:51:11.454Z,16.65
2024-02-15T01:53:39.971Z,14.35
2024-02-15T01:56:08.248Z,14.65
2024-02-15T01:58:37.344Z,17.10
2024-02-15T02:01:06.452Z,16.38
2024-02-15T02:03:33.672Z,18.40
2024-02-15T02:06:01.991Z,18.50
2024-02-15T02:08:29.237Z,16.13
2024-02-15T02:10:56.297Z,16.05
2024-02-15T02:13:23.555Z,15.52
2024-02-15T02:15:50.916Z,15.48
2024-02-15T02:18:18.107Z,15.95
2024-02-15T02:20:46.894Z,15.80
2024-02-15T02:23:21.298Z,17.33
2024-02-15T02:25:50.324Z,15.27
2024-02-15T02:28:20.191Z,15.70
2024-02-15T02:30:47.755Z,13.25
2024-02-15T02:33:23.375Z,16.17
2024-02-15T02:35:50.785Z,17.48
2024-02-15T02:38:17.993Z,14.88
2024-02-15T02:40:45.214Z,17.15
2024-02-15T02:43:12.254Z,14.77
2024-02-15T02:45:39.606Z,17.30
2024-02-15T02:48:06.974Z,15.60
2024-02-15T02:50:34.417Z,17.30
2024-02-15T02:53:01.590Z,16.92
2024-02-15T02:55:29.148Z,17.95
2024-02-15T02:57:56.639Z,17.30
2024-02-15T03:00:24.315Z,18.42
2024-02-15T03:02:51.607Z,19.30
2024-02-15T03:05:22.368Z,21.27
2024-02-15T03:07:52.806Z,15.45
2024-02-15T03:10:20.318Z,18.25
2024-02-15T03:12:50.249Z,17.65
2024-02-15T03:15:19.452Z,19.17
2024-02-15T03:17:49.408Z,15.65
2024-02-15T03:20:23.509Z,17.90
2024-02-15T03:22:54.662Z,20.60
2024-02-15T03:25:25.198Z,18.17
2024-02-15T03:27:57.127Z,18.35
2024-02-15T03:30:26.616Z,20.63
2024-02-15T03:32:54.617Z,20.00
2024-02-15T03:35:24.392Z,22.23
2024-02-15T03:37:52.297Z,19.42
2024-02-15T03:40:24.248Z,20.70
2024-02-15T03:42:51.727Z,21.58
2024-02-15T03:45:19.026Z,21.58
2024-02-15T03:47:47.769Z,19.92
2024-02-15T03:50:16.373Z,18.70
2024-02-15T03:52:45.037Z,18.25
2024-02-15T03:55:12.212Z,22.35
2024-02-15T03:57:44.943Z,18.83
2024-02-15T04:00:14.971Z,18.98
2024-02-15T04:02:42.862Z,19.80
2024-02-15T04:05:13.780Z,22.77
2024-02-15T04:07:41.256Z,17.45
2024-02-15T04:10:09.766Z,17.08
2024-02-15T04:12:50.117Z,25.33
2024-02-15T04:15:19.103Z,20.25
2024-02-15T04:17:47.226Z,19.60
2024-02-15T04:20:16.596Z,20.60
2024-02-15T04:22:44.895Z,19.27
2024-02-15T04:25:17.695Z,19.60
2024-02-15T04:27:48.044Z,18.88
2024-02-15T04:30:17.255Z,20.75
2024-02-15T04:32:44.874Z,20.20
2024-02-15T04:35:14.789Z,18.95
2024-02-15T04:37:43.153Z,17.55
2024-02-15T04:40:12.117Z,18.05
2024-02-15T04:42:42.063Z,19.63
2024-02-15T04:45:11.860Z,17.13
2024-02-15T04:47:53.799Z,19.98
2024-02-15T04:50:22.248Z,17.25
2024-02-15T04:52:51.167Z,20.17
2024-02-15T04:55:19.209Z,20.33
2024-02-15T04:57:48.613Z,21.02
2024-02-15T05:02:45.823Z,18.50
2024-02-15T05:05:14.768Z,17.67
2024-02-15T05:07:44.533Z,19.83
2024-02-15T05:10:11.983Z,19.50
2024-02-15T05:12:41.501Z,19.77
2024-02-15T05:15:12.715Z,22.15
2024-02-15T05:17:44.544Z,20.70
2024-02-15T05:20:13.429Z,17.23
2024-02-15T05:22:43.930Z,19.50
2024-02-15T05:25:13.777Z,18.75
2024-02-15T05:27:40.956Z,18.33
2024-02-15T05:30:08.632Z,23.95
2024-02-15T05:32:43.078Z,19.60
2024-02-15T05:35:14.055Z,20.83
2024-02-15T05:37:41.174Z,20.17
2024-02-15T05:40:08.776Z,18.88
2024-02-15T05:42:36.176Z,20.70
2024-02-15T05:45:30.803Z,20.30
2024-02-15T05:47:58.049Z,20.15
2024-02-15T05:50:25.730Z,20.88
2024-02-15T05:52:54.285Z,24.63
2024-02-15T05:55:21.438Z,21.00
2024-02-15T05:57:48.550Z,16.30
2024-02-15T06:00:22.715Z,19.25
2024-02-15T06:02:51.925Z,19.98
2024-02-15T06:05:21.345Z,21.83
2024-02-15T06:07:49.002Z,21.48
2024-02-15T06:10:16.909Z,21.85
2024-02-15T06:12:44.405Z,19.23
2024-02-15T06:15:17.116Z,20.02
2024-02-15T06:17:45.802Z,20.38
2024-02-15T06:20:15.373Z,17.75
2024-02-15T06:22:43.433Z,17.70
2024-02-15T06:25:11.708Z,20.17
2024-02-15T06:27:42.024Z,19.08
2024-02-15T06:30:29.878Z,21.38
2024-02-15T06:33:15.508Z,21.33
2024-02-15T06:36:01.978Z,20.08
2024-02-15T06:38:47.747Z,18.35
2024-02-15T06:41:15.108Z,21.73
2024-02-15T06:43:42.673Z,19.52
2024-02-15T06:46:11.958Z,22.00
2024-02-15T06:48:39.440Z,19.55
2024-02-15T06:51:07.432Z,20.88
2024-02-15T06:53:34.783Z,20.63
2024-02-15T06:56:03.811Z,19.85
2024-02-15T06:58:31.198Z,17.88
2024-02-15T07:00:58.230Z,21.48
2024-02-15T07:03:25.443Z,24.10
2024-02-15T07:05:52.571Z,21.40
2024-02-15T07:08:19.767Z,25.90
2024-02-15T07:10:46.950Z,24.55
2024-02-15T07:13:13.933Z,21.30
2024-02-15T07:15:41.227Z,22.73
2024-02-15T07:18:08.679Z,20.33
2024-02-15T07:20:35.972Z,16.83
2024-02-15T07:23:03.217Z,22.95
2024-02-15T07:25:30.413Z,20.77
2024-02-15T07:27:57.870Z,22.52
2024-02-15T07:30:26.406Z,23.52
2024-02-15T07:32:53.900Z,21.05
2024-02-15T07:35:21.302Z,21.13
2024-02-15T07:38:00.030Z,20.65
2024-02-15T07:40:29.818Z,20.90
2024-02-15T07:43:00.201Z,20.67
2024-02-15T07:45:27.457Z,19.58
2024-02-15T07:47:54.903Z,18.48
2024-02-15T07:50:24.255Z,20.92
2024-02-15T07:55:19.536Z,21.58
2024-02-15T07:57:49.605Z,20.67
2024-02-15T08:00:17.890Z,20.45
2024-02-15T08:02:45.658Z,20.90
2024-02-15T08:05:15.276Z,21.55
2024-02-15T08:07:45.435Z,17.33
2024-02-15T08:10:16.673Z,19.83
2024-02-15T08:12:44.904Z,18.05
2024-02-15T08:15:15.995Z,20.77
2024-02-15T08:17:44.587Z,19.80
2024-02-15T08:20:12.616Z,19.83
2024-02-15T08:22:40.524Z,15.73
2024-02-15T08:25:11.484Z,17.98
2024-02-15T08:27:46.643Z,18.60
2024-02-15T08:30:15.009Z,19.80
2024-02-15T08:32:43.710Z,18.17
2024-02-15T08:35:12.493Z,19.70
2024-02-15T08:37:41.112Z,18.90
2024-02-15T08:40:14.753Z,20.80
2024-02-15T08:42:43.133Z,18.20
2024-02-15T08:45:11.854Z,17.30
2024-02-15T08:47:43.623Z,16.98
2024-02-15T08:50:13.003Z,18.90
2024-02-15T08:52:41.558Z,17.08
2024-02-15T08:55:10.810Z,15.80
2024-02-15T08:57:41.725Z,19.98
2024-02-15T09:00:15.109Z,16.80
2024-02-15T09:02:46.665Z,17.00
2024-02-15T09:05:18.620Z,14.57
2024-02-15T09:07:51.470Z,14.98
2024-02-15T09:10:19.039Z,19.48
2024-02-15T09:12:50.521Z,20.98
2024-02-15T09:15:18.942Z,22.27
2024-02-15T09:17:47.696Z,16.40
2024-02-15T09:20:21.813Z,18.30
2024-02-15T09:22:51.071Z,17.90
2024-02-15T09:25:19.531Z,17.35
2024-02-15T09:27:47.175Z,19.63
2024-02-15T09:30:15.219Z,14.38
2024-02-15T09:32:43.786Z,16.35
2024-02-15T09:35:15.647Z,16.25
2024-02-15T09:37:51.365Z,15.38
2024-02-15T09:40:21.013Z,15.68
2024-02-15T09:42:49.492Z,14.70
2024-02-15T09:45:18.676Z,14.88
2024-02-15T09:47:46.634Z,15.77
2024-02-15T09:50:17.216Z,20.20
2024-02-15T09:52:52.752Z,14.93
2024-02-15T09:55:21.201Z,16.88
2024-02-15T09:57:48.643Z,14.45
2024-02-15T10:00:18.797Z,15.35
2024-02-15T10:02:49.037Z,17.55
2024-02-15T10:05:18.618Z,16.35
2024-02-15T10:07:46.927Z,14.25
2024-02-15T10:10:18.364Z,18.35
2024-02-15T10:12:49.333Z,15.48
2024-02-15T10:15:41.895Z,15.27
2024-02-15T10:18:12.554Z,17.00
2024-02-15T10:20:41.832Z,18.77
2024-02-15T10:23:12.725Z,14.80
2024-02-15T10:25:42.131Z,17.92
2024-02-15T10:30:46.993Z,15.20
2024-02-15T10:33:25.517Z,14.23
2024-02-15T10:36:15.703Z,15.05
2024-02-15T10:38:43.480Z,14.98
2024-02-15T10:41:12.488Z,13.55
2024-02-15T10:43:44.772Z,15.75
2024-02-15T10:46:14.224Z,13.18
2024-02-15T10:48:41.664Z,16.75
2024-02-15T10:51:12.186Z,14.35
2024-02-15T10:53:51.829Z,12.38
2024-02-15T10:59:15.102Z,12.30
2024-02-15T11:01:45.175Z,12.48
2024-02-15T11:04:16.723Z,16.10
2024-02-15T11:06:45.766Z,17.30
2024-02-15T11:09:14.760Z,14.25
2024-02-15T11:11:43.075Z,13.93
2024-02-15T11:14:30.558Z,13.80
2024-02-15T11:16:59.148Z,17.17
2024-02-15T11:19:38.596Z,13.53
2024-02-15T11:22:15.736Z,13.38
2024-02-15T11:24:54.151Z,12.82
2024-02-15T11:27:31.386Z,12.65
2024-02-15T11:30:05.729Z,12.23
2024-02-15T11:32:57.595Z,13.02
2024-02-15T11:35:26.577Z,13.60
2024-02-15T11:38:05.518Z,10.65
2024-02-15T11:40:45.488Z,12.75
2024-02-15T11:43:51.466Z,11.73
2024-02-15T11:46:20.870Z,12.23
2024-02-15T11:48:49.585Z,13.40
2024-02-15T11:51:30.044Z,12.60
2024-02-15T11:54:08.062Z,13.85
2024-02-15T11:57:11.837Z,11.85
2024-02-15T12:00:15.689Z,12.00
2024-02-15T12:03:01.350Z,12.00
2024-02-15T12:05:46.965Z,11.80
2024-02-15T12:08:32.977Z,13.57
2024-02-15T12:11:19.819Z,18.20
2024-02-15T12:14:47.093Z,12.80
2024-02-15T12:17:56.516Z,14.02
2024-02-15T12:20:26.653Z,12.88
2024-02-15T12:22:54.560Z,11.15
2024-02-15T12:25:25.772Z,11.75
2024-02-15T12:28:01.008Z,13.82
2024-02-15T12:30:34.860Z,12.82
2024-02-15T12:33:13.096Z,13.18
2024-02-15T12:35:40.398Z,13.98
2024-02-15T12:38:09.739Z,15.60
2024-02-15T12:43:13.389Z,15.60
2024-02-15T12:45:42.486Z,13.57
2024-02-15T12:48:11.967Z,12.88
2024-02-15T12:50:41.235Z,13.35
2024-02-15T12:53:09.588Z,11.35
2024-02-15T12:55:39.461Z,14.10
2024-02-15T12:58:16.535Z,12.68
2024-02-15T13:00:45.072Z,11.25
2024-02-15T13:03:15.171Z,14.57
2024-02-15T13:05:42.781Z,12.80
2024-02-15T13:08:15.577Z,14.07
2024-02-15T13:10:43.441Z,14.77
2024-02-15T13:13:11.378Z,14.30
2024-02-15T13:15:39.870Z,12.63
2024-02-15T13:18:11.243Z,10.75
2024-02-15T13:20:39.408Z,16.42
2024-02-15T13:23:15.651Z,12.07
2024-02-15T13:25:44.646Z,11.27
2024-02-15T13:28:14.716Z,11.63
2024-02-15T13:30:46.285Z,11.02
2024-02-15T13:33:15.039Z,11.73
2024-02-15T13:35:42.708Z,14.25
2024-02-15T13:38:16.306Z,13.07
2024-02-15T13:40:46.182Z,10.70
2024-02-15T13:43:13.694Z,11.75
2024-02-15T13:45:42.108Z,13.07
2024-02-15T13:48:10.690Z,11.00
2024-02-15T13:50:40.482Z,13.60
2024-02-15T13:53:10.696Z,13.07
2024-02-15T13:55:38.715Z,12.82
2024-02-15T13:58:05.899Z,14.45
2024-02-15T14:00:35.870Z,13.45
2024-02-15T14:03:07.517Z,12.25
2024-02-15T14:05:35.256Z,14.32
2024-02-15T14:08:04.500Z,12.90
2024-02-15T14:10:36.720Z,12.13
2024-02-15T14:13:13.040Z,13.30
2024-02-15T14:15:41.110Z,12.10
2024-02-15T14:18:15.709Z,34.28
2024-02-15T14:20:44.593Z,24.67
2024-02-15T14:23:15.535Z,27.60
2024-02-15T14:25:43.764Z,16.85
2024-02-15T14:28:11.064Z,11.27
2024-02-15T14:30:58.743Z,11.70
2024-02-15T14:33:33.117Z,9.85
2024-02-15T14:36:02.041Z,12.57
2024-02-15T14:38:30.253Z,16.27
2024-02-15T14:40:59.584Z,12.73
2024-02-15T14:43:28.583Z,12.45
2024-02-15T14:45:58.233Z,11.38
2024-02-15T14:48:26.964Z,12.27
2024-02-15T14:50:57.337Z,15.27
2024-02-15T14:53:25.440Z,11.40
2024-02-15T14:55:53.858Z,11.93
2024-02-15T14:58:23.942Z,15.40
2024-02-15T15:00:51.539Z,13.20
2024-02-15T15:03:19.083Z,12.30
2024-02-15T15:06:05.441Z,12.73
2024-02-15T15:08:52.107Z,16.17
2024-02-15T15:11:38.604Z,14.18
2024-02-15T15:14:07.081Z,15.63
2024-02-15T15:16:35.505Z,15.20
2024-02-15T15:19:04.477Z,14.45
2024-02-15T15:21:50.760Z,13.05
2024-02-15T15:24:17.929Z,13.40
2024-02-15T15:26:45.198Z,13.20
2024-02-15T15:29:12.867Z,14.25
2024-02-15T15:31:40.140Z,14.50
2024-02-15T15:34:08.302Z,13.05
2024-02-15T15:36:35.901Z,10.43
2024-02-15T15:39:09.856Z,13.85
2024-02-15T15:41:38.847Z,10.90
2024-02-15T15:44:06.176Z,14.55
2024-02-15T15:46:34.670Z,13.75
2024-02-15T15:49:02.391Z,14.93
2024-02-15T15:51:29.586Z,15.65
2024-02-15T15:53:56.789Z,18.83
2024-02-15T15:56:23.871Z,12.90
2024-02-15T15:58:54.478Z,11.55
2024-02-15T16:01:22.156Z,14.80
2024-02-15T16:03:50.992Z,10.75
2024-02-15T16:06:18.577Z,11.55
2024-02-15T16:08:47.322Z,14.15
2024-02-15T16:11:17.981Z,10.38
2024-02-15T16:13:47.718Z,11.88
2024-02-15T16:16:15.524Z,11.30
2024-02-15T16:18:43.524Z,13.73
2024-02-15T16:21:10.766Z,14.65
2024-02-15T16:23:37.875Z,12.82
2024-02-15T16:26:07.252Z,8.95
2024-02-15T16:28:34.575Z,13.38
2024-02-15T16:31:02.997Z,11.27
2024-02-15T16:33:30.328Z,13.85
2024-02-15T16:35:57.787Z,12.50
2024-02-15T16:38:24.885Z,13.63
2024-02-15T16:40:51.968Z,14.93
2024-02-15T16:43:19.256Z,12.43
2024-02-15T16:45:47.610Z,15.43
2024-02-15T16:48:14.801Z,11.40
2024-02-15T16:50:43.126Z,13.73
2024-02-15T16:53:10.438Z,13.75
2024-02-15T16:55:37.496Z,13.35
2024-02-15T16:58:09.506Z,17.25
2024-02-15T17:00:39.687Z,14.55
2024-02-15T17:03:07.230Z,16.60
2024-02-15T17:05:36.982Z,15.90
2024-02-15T17:08:07.648Z,20.77
2024-02-15T17:10:36.781Z,18.92
2024-02-15T17:13:05.531Z,17.00
2024-02-15T17:15:33.024Z,18.88
2024-02-15T17:18:00.333Z,23.70
2024-02-15T17:20:28.067Z,22.13
2024-02-15T17:22:55.196Z,17.25
2024-02-15T17:25:26.649Z,20.52
2024-02-15T17:27:56.819Z,19.10
2024-02-15T17:30:25.021Z,17.85
2024-02-15T17:32:53.563Z,34.97
2024-02-15T17:35:22.574Z,19.63
2024-02-15T17:37:50.506Z,20.27
2024-02-15T17:40:18.939Z,16.88
2024-02-15T17:42:46.215Z,16.92
2024-02-15T17:45:14.730Z,22.60
2024-02-15T17:47:45.752Z,17.92
2024-02-15T17:50:19.323Z,20.75
2024-02-15T17:52:47.152Z,23.27
2024-02-15T17:55:16.314Z,20.77
2024-02-15T17:57:47.618Z,24.55
2024-02-15T18:00:21.234Z,19.83
2024-02-15T18:02:50.556Z,19.13
2024-02-15T18:05:21.465Z,18.45
2024-02-15T18:07:52.097Z,14.48
2024-02-15T18:10:22.962Z,19.42
2024-02-15T18:12:50.633Z,26.50
2024-02-15T18:15:30.534Z,21.20
2024-02-15T18:17:58.699Z,21.02
2024-02-15T18:20:27.344Z,25.45
2024-02-15T18:22:55.175Z,17.20
2024-02-15T18:25:22.459Z,15.90
2024-02-15T18:27:49.755Z,16.02
2024-02-15T18:30:20.047Z,20.95
2024-02-15T18:32:49.044Z,18.25
2024-02-15T18:35:17.887Z,16.52
2024-02-15T18:37:47.794Z,23.15
2024-02-15T18:40:22.591Z,24.15
2024-02-15T18:42:55.880Z,27.95
2024-02-15T18:45:23.302Z,31.63
2024-02-15T18:47:51.697Z,27.40
2024-02-15T18:50:21.591Z,31.85
2024-02-15T18:52:49.392Z,28.48
2024-02-15T18:55:16.989Z,28.98
2024-02-15T18:57:45.433Z,43.35
2024-02-15T19:00:23.582Z,26.20
2024-02-15T19:03:00.530Z,43.50
2024-02-15T19:05:29.353Z,30.92
2024-02-15T19:07:56.757Z,40.88
2024-02-15T19:10:24.257Z,28.20
2024-02-15T19:12:54.969Z,22.63
2024-02-15T19:15:24.435Z,37.03
2024-02-15T19:17:52.565Z,28.27
2024-02-15T19:20:20.050Z,27.38
2024-02-15T19:22:47.563Z,23.67
2024-02-15T19:25:22.138Z,26.05
2024-02-15T19:27:50.005Z,27.08
2024-02-15T19:30:19.865Z,26.52
2024-02-15T19:32:50.373Z,19.13
2024-02-15T19:35:19.908Z,28.45
2024-02-15T19:37:48.008Z,24.73
2024-02-15T19:40:19.068Z,24.30
2024-02-15T19:42:48.731Z,24.35
2024-02-15T19:45:20.029Z,21.92
2024-02-15T19:47:52.938Z,23.20
2024-02-15T19:50:24.549Z,26.42
2024-02-15T19:52:51.812Z,30.65
2024-02-15T19:55:18.900Z,32.30
2024-02-15T19:57:45.950Z,26.33
2024-02-15T20:00:15.238Z,20.20
2024-02-15T20:02:45.110Z,25.00
2024-02-15T20:05:13.348Z,23.75
2024-02-15T20:07:41.036Z,29.50
2024-02-15T20:10:09.239Z,20.17
2024-02-15T20:12:37.711Z,22.00
2024-02-15T20:15:09.468Z,20.15
2024-02-15T20:17:37.933Z,20.92
2024-02-15T20:20:09.873Z,22.02
2024-02-15T20:22:40.216Z,18.38
2024-02-15T20:25:10.814Z,22.00
2024-02-15T20:27:38.575Z,20.35
2024-02-15T20:30:06.592Z,23.17
2024-02-15T20:32:33.825Z,22.88
2024-02-15T20:35:01.060Z,27.63
2024-02-15T20:37:28.215Z,27.85
2024-02-15T20:39:55.223Z,32.63
2024-02-15T20:42:22.865Z,25.63
2024-02-15T20:44:50.378Z,25.75
2024-02-15T20:47:20.214Z,30.77
2024-02-15T20:49:47.810Z,32.38
2024-02-15T20:52:15.026Z,27.38
2024-02-15T20:54:42.380Z,34.38
2024-02-15T20:57:16.186Z,29.67
2024-02-15T20:59:43.829Z,30.88
2024-02-15T21:02:11.439Z,33.95
2024-02-15T21:04:39.148Z,30.55
2024-02-15T21:07:06.879Z,35.67
2024-02-15T21:09:34.226Z,51.00
2024-02-15T21:12:01.421Z,68.18
2024-02-15T21:14:28.508Z,46.70
2024-02-15T21:16:55.652Z,51.70
2024-02-15T21:19:22.740Z,43.85
2024-02-15T21:21:49.924Z,51.28
2024-02-15T21:24:17.086Z,39.80
2024-02-15T21:26:45.285Z,35.70
2024-02-15T21:29:16.693Z,36.45
2024-02-15T21:31:52.096Z,34.70
2024-02-15T21:34:19.581Z,42.25
2024-02-15T21:36:46.976Z,34.22
2024-02-15T21:39:14.281Z,45.13
2024-02-15T21:41:41.381Z,38.92
2024-02-15T21:44:12.284Z,42.20
2024-02-15T21:46:40.950Z,39.67
2024-02-15T21:49:08.322Z,35.90
2024-02-15T21:51:35.480Z,40.00
2024-02-15T21:54:02.661Z,38.03
2024-02-15T21:56:29.913Z,37.78
2024-02-15T21:58:56.929Z,34.55
2024-02-15T22:01:23.909Z,38.03
2024-02-15T22:03:52.061Z,36.03
2024-02-15T22:06:19.246Z,34.85
2024-02-15T22:08:46.828Z,40.72
2024-02-15T22:11:13.857Z,40.50
2024-02-15T22:13:43.718Z,41.45
2024-02-15T22:16:11.384Z,49.08
2024-02-15T22:18:38.725Z,34.50
2024-02-15T22:21:06.306Z,38.60
2024-02-15T22:23:33.364Z,40.22
2024-02-15T22:26:00.350Z,43.00
2024-02-15T22:28:27.571Z,34.50
2024-02-15T22:30:54.693Z,38.58
2024-02-15T22:33:24.957Z,43.75
2024-02-15T22:35:52.310Z,40.08
2024-02-15T22:38:19.776Z,34.38
2024-02-15T22:40:46.979Z,33.67
2024-02-15T22:43:14.243Z,36.67
2024-02-15T22:45:41.312Z,32.47
2024-02-15T22:48:08.599Z,34.75
2024-02-15T22:50:35.786Z,36.45
2024-02-15T22:53:03.612Z,36.70
2024-02-15T22:55:30.946Z,38.28
2024-02-15T22:57:59.157Z,40.60
2024-02-15T23:00:27.443Z,34.53
2024-02-15T23:02:54.840Z,42.60
2024-02-15T23:05:23.440Z,41.80
2024-02-15T23:07:51.664Z,40.30
2024-02-15T23:10:18.975Z,37.40
2024-02-15T23:12:46.057Z,37.75
2024-02-15T23:15:16.232Z,38.22
2024-02-15T23:17:43.742Z,36.80
2024-02-15T23:20:13.212Z,34.25
2024-02-15T23:22:43.046Z,34.80
2024-02-15T23:25:10.510Z,33.60
2024-02-15T23:27:37.554Z,32.70
2024-02-15T23:30:06.021Z,38.95
2024-02-15T23:32:36.123Z,37.10
2024-02-15T23:35:04.761Z,36.60
2024-02-15T23:37:50.302Z,30.42
2024-02-15T23:40:20.662Z,39.15
2024-02-15T23:42:47.688Z,36.25
2024-02-15T23:45:14.844Z,32.30
2024-02-15T23:47:42.148Z,29.55
2024-02-15T23:50:16.900Z,31.38
2024-02-15T23:52:47.053Z,34.60
2024-02-15T23:55:15.976Z,32.58
2024-02-15T23:57:44.590Z,33.88
